sensor_id;sensor_type;location;lat;lon;timestamp;temperature;humidity
38902;DHT22;24661;53.566;9.910;2023-04-16T00:01:22;8.20;99.90
38902;DHT22;24661;53.566;9.910;2023-04-16T00:03:47;8.10;99.90
38902;DHT22;24661;53.566;9.910;2023-04-16T00:06:13;8.00;99.90
38902;DHT22;24661;53.566;9.910;2023-04-16T00:08:38;8.00;99.90
38902;DHT22;24661;53.566;9.910;2023-04-16T00:11:05;8.00;99.90
38902;DHT22;24661;53.566;9.910;2023-04-16T00:13:31;8.00;99.90
38902;DHT22;24661;53.566;9.910;2023-04-16T00:15:57;7.80;99.90
38902;DHT22;24661;53.566;9.910;2023-04-16T00:18:23;7.80;99.90
38902;DHT22;24661;53.566;9.910;2023-04-16T00:20:49;7.80;99.90
38902;DHT22;24661;53.566;9.910;2023-04-16T00:23:15;7.70;99.90
38902;DHT22;24661;53.566;9.910;2023-04-16T00:25:41;7.70;99.90
38902;DHT22;24661;53.566;9.910;2023-04-16T00:28:07;7.70;99.90
38902;DHT22;24661;53.566;9.910;2023-04-16T00:30:33;7.70;99.90
38902;DHT22;24661;53.566;9.910;2023-04-16T00:32:59;7.70;99.90
38902;DHT22;24661;53.566;9.910;2023-04-16T00:35:25;7.70;99.90
38902;DHT22;24661;53.566;9.910;2023-04-16T00:37:51;7.70;99.90
38902;DHT22;24661;53.566;9.910;2023-04-16T00:40:16;9.10;99.90
38902;DHT22;24661;53.566;9.910;2023-04-16T00:42:42;7.70;99.90
38902;DHT22;24661;53.566;9.910;2023-04-16T00:45:08;7.70;99.90
38902;DHT22;24661;53.566;9.910;2023-04-16T00:47:34;7.70;99.90
38902;DHT22;24661;53.566;9.910;2023-04-16T00:50:04;7.80;99.90
38902;DHT22;24661;53.566;9.910;2023-04-16T00:52:31;7.80;99.90
38902;DHT22;24661;53.566;9.910;2023-04-16T00:54:57;7.70;99.90
38902;DHT22;24661;53.566;9.910;2023-04-16T00:57:23;7.70;99.90
38902;DHT22;24661;53.566;9.910;2023-04-16T00:59:49;7.80;99.90
38902;DHT22;24661;53.566;9.910;2023-04-16T01:02:15;7.80;99.90
38902;DHT22;24661;53.566;9.910;2023-04-16T01:04:41;7.80;99.90
38902;DHT22;24661;53.566;9.910;2023-04-16T01:07:07;7.80;99.90
38902;DHT22;24661;53.566;9.910;2023-04-16T01:09:32;7.80;99.90
38902;DHT22;24661;53.566;9.910;2023-04-16T01:11:58;7.90;99.90
38902;DHT22;24661;53.566;9.910;2023-04-16T01:14:23;7.80;99.90
38902;DHT22;24661;53.566;9.910;2023-04-16T01:16:49;7.80;99.90
38902;DHT22;24661;53.566;9.910;2023-04-16T01:19:14;7.80;99.90
38902;DHT22;24661;53.566;9.910;2023-04-16T01:21:40;7.80;99.90
38902;DHT22;24661;53.566;9.910;2023-04-16T01:24:06;7.80;99.90
38902;DHT22;24661;53.566;9.910;2023-04-16T01:26:31;7.80;99.90
38902;DHT22;24661;53.566;9.910;2023-04-16T01:28:57;7.90;99.90
38902;DHT22;24661;53.566;9.910;2023-04-16T01:31:23;7.90;99.90
38902;DHT22;24661;53.566;9.910;2023-04-16T01:33:48;8.00;99.90
38902;DHT22;24661;53.566;9.910;2023-04-16T01:36:14;8.00;99.90
38902;DHT22;24661;53.566;9.910;2023-04-16T01:38:40;8.10;99.90
38902;DHT22;24661;53.566;9.910;2023-04-16T01:41:06;8.00;99.90
38902;DHT22;24661;53.566;9.910;2023-04-16T01:43:32;8.00;99.90
38902;DHT22;24661;53.566;9.910;2023-04-16T01:46:19;8.00;99.90
38902;DHT22;24661;53.566;9.910;2023-04-16T01:48:48;8.00;99.90
38902;DHT22;24661;53.566;9.910;2023-04-16T01:51:13;8.00;99.90
38902;DHT22;24661;53.566;9.910;2023-04-16T01:53:39;8.10;99.90
38902;DHT22;24661;53.566;9.910;2023-04-16T01:56:05;8.00;99.90
38902;DHT22;24661;53.566;9.910;2023-04-16T01:58:31;8.00;99.90
38902;DHT22;24661;53.566;9.910;2023-04-16T02:00:57;8.00;99.90
38902;DHT22;24661;53.566;9.910;2023-04-16T02:03:23;8.10;99.90
38902;DHT22;24661;53.566;9.910;2023-04-16T02:05:49;8.10;99.90
38902;DHT22;24661;53.566;9.910;2023-04-16T02:08:15;8.10;99.90
38902;DHT22;24661;53.566;9.910;2023-04-16T02:10:41;8.10;99.90
38902;DHT22;24661;53.566;9.910;2023-04-16T02:13:06;8.10;99.90
38902;DHT22;24661;53.566;9.910;2023-04-16T02:15:32;8.20;99.90
38902;DHT22;24661;53.566;9.910;2023-04-16T02:17:57;8.20;99.90
38902;DHT22;24661;53.566;9.910;2023-04-16T02:20:23;8.20;99.90
38902;DHT22;24661;53.566;9.910;2023-04-16T02:22:48;8.20;99.90
38902;DHT22;24661;53.566;9.910;2023-04-16T02:25:14;8.20;99.90
38902;DHT22;24661;53.566;9.910;2023-04-16T02:27:40;8.20;99.90
38902;DHT22;24661;53.566;9.910;2023-04-16T02:30:06;8.20;99.90
38902;DHT22;24661;53.566;9.910;2023-04-16T02:32:32;8.20;99.90
38902;DHT22;24661;53.566;9.910;2023-04-16T02:34:57;8.20;99.90
38902;DHT22;24661;53.566;9.910;2023-04-16T02:37:23;8.20;99.90
38902;DHT22;24661;53.566;9.910;2023-04-16T02:39:50;8.20;99.90
38902;DHT22;24661;53.566;9.910;2023-04-16T02:42:15;8.20;99.90
38902;DHT22;24661;53.566;9.910;2023-04-16T02:44:41;8.20;99.90
38902;DHT22;24661;53.566;9.910;2023-04-16T02:47:07;8.20;99.90
38902;DHT22;24661;53.566;9.910;2023-04-16T02:49:32;8.20;99.90
38902;DHT22;24661;53.566;9.910;2023-04-16T02:51:59;8.20;99.90
38902;DHT22;24661;53.566;9.910;2023-04-16T02:54:25;8.20;99.90
38902;DHT22;24661;53.566;9.910;2023-04-16T02:56:50;8.20;99.90
38902;DHT22;24661;53.566;9.910;2023-04-16T02:59:16;8.20;99.90
38902;DHT22;24661;53.566;9.910;2023-04-16T03:01:41;8.20;99.90
38902;DHT22;24661;53.566;9.910;2023-04-16T03:04:07;8.20;99.90
38902;DHT22;24661;53.566;9.910;2023-04-16T03:06:32;8.20;99.90
38902;DHT22;24661;53.566;9.910;2023-04-16T03:08:58;8.20;99.90
38902;DHT22;24661;53.566;9.910;2023-04-16T03:11:23;8.20;99.90
38902;DHT22;24661;53.566;9.910;2023-04-16T03:13:49;8.30;99.90
38902;DHT22;24661;53.566;9.910;2023-04-16T03:16:15;8.30;99.90
38902;DHT22;24661;53.566;9.910;2023-04-16T03:18:40;8.20;99.90
38902;DHT22;24661;53.566;9.910;2023-04-16T03:21:06;8.20;99.90
38902;DHT22;24661;53.566;9.910;2023-04-16T03:23:31;8.30;99.90
38902;DHT22;24661;53.566;9.910;2023-04-16T03:25:57;8.30;99.90
38902;DHT22;24661;53.566;9.910;2023-04-16T03:28:23;8.30;99.90
38902;DHT22;24661;53.566;9.910;2023-04-16T03:30:52;8.30;99.90
38902;DHT22;24661;53.566;9.910;2023-04-16T03:33:19;8.30;99.90
38902;DHT22;24661;53.566;9.910;2023-04-16T03:35:45;8.30;99.90
38902;DHT22;24661;53.566;9.910;2023-04-16T03:38:10;8.30;99.90
38902;DHT22;24661;53.566;9.910;2023-04-16T03:40:37;8.30;99.90
38902;DHT22;24661;53.566;9.910;2023-04-16T03:43:03;8.40;99.90
38902;DHT22;24661;53.566;9.910;2023-04-16T03:45:28;8.40;99.90
38902;DHT22;24661;53.566;9.910;2023-04-16T03:47:54;8.30;99.90
38902;DHT22;24661;53.566;9.910;2023-04-16T03:50:20;8.30;99.90
38902;DHT22;24661;53.566;9.910;2023-04-16T03:52:45;8.40;99.90
38902;DHT22;24661;53.566;9.910;2023-04-16T03:55:13;8.40;99.90
38902;DHT22;24661;53.566;9.910;2023-04-16T03:57:39;8.40;99.90
38902;DHT22;24661;53.566;9.910;2023-04-16T04:00:06;8.30;99.90
38902;DHT22;24661;53.566;9.910;2023-04-16T04:02:32;8.30;99.90
38902;DHT22;24661;53.566;9.910;2023-04-16T04:04:57;8.30;99.90
38902;DHT22;24661;53.566;9.910;2023-04-16T04:07:22;8.30;99.90
38902;DHT22;24661;53.566;9.910;2023-04-16T04:09:48;8.40;99.90
38902;DHT22;24661;53.566;9.910;2023-04-16T04:12:14;8.40;99.90
38902;DHT22;24661;53.566;9.910;2023-04-16T04:14:39;8.40;99.90
38902;DHT22;24661;53.566;9.910;2023-04-16T04:17:06;8.40;99.90
38902;DHT22;24661;53.566;9.910;2023-04-16T04:19:31;8.40;99.90
38902;DHT22;24661;53.566;9.910;2023-04-16T04:21:57;8.40;99.90
38902;DHT22;24661;53.566;9.910;2023-04-16T04:24:22;8.40;99.90
38902;DHT22;24661;53.566;9.910;2023-04-16T04:26:48;8.40;99.90
38902;DHT22;24661;53.566;9.910;2023-04-16T04:29:14;8.40;99.90
38902;DHT22;24661;53.566;9.910;2023-04-16T04:31:39;8.30;99.90
38902;DHT22;24661;53.566;9.910;2023-04-16T04:34:05;8.40;99.90
38902;DHT22;24661;53.566;9.910;2023-04-16T04:36:30;8.50;99.90
38902;DHT22;24661;53.566;9.910;2023-04-16T04:38:56;8.40;99.90
38902;DHT22;24661;53.566;9.910;2023-04-16T04:41:22;8.40;99.90
38902;DHT22;24661;53.566;9.910;2023-04-16T04:43:48;8.40;99.90
38902;DHT22;24661;53.566;9.910;2023-04-16T04:46:13;8.40;99.90
38902;DHT22;24661;53.566;9.910;2023-04-16T04:48:39;8.40;99.90
38902;DHT22;24661;53.566;9.910;2023-04-16T04:51:05;8.40;99.90
38902;DHT22;24661;53.566;9.910;2023-04-16T04:53:30;8.40;99.90
38902;DHT22;24661;53.566;9.910;2023-04-16T04:55:56;8.40;99.90
38902;DHT22;24661;53.566;9.910;2023-04-16T04:58:21;8.40;99.90
38902;DHT22;24661;53.566;9.910;2023-04-16T05:00:47;8.40;99.90
38902;DHT22;24661;53.566;9.910;2023-04-16T05:03:19;8.40;99.90
38902;DHT22;24661;53.566;9.910;2023-04-16T05:05:44;8.40;99.90
38902;DHT22;24661;53.566;9.910;2023-04-16T05:08:10;8.40;99.90
38902;DHT22;24661;53.566;9.910;2023-04-16T05:10:35;8.40;99.90
38902;DHT22;24661;53.566;9.910;2023-04-16T05:13:01;8.40;99.90
38902;DHT22;24661;53.566;9.910;2023-04-16T05:15:27;8.40;99.90
38902;DHT22;24661;53.566;9.910;2023-04-16T05:17:52;8.50;99.90
38902;DHT22;24661;53.566;9.910;2023-04-16T05:20:23;8.50;99.90
38902;DHT22;24661;53.566;9.910;2023-04-16T05:22:51;8.60;99.90
38902;DHT22;24661;53.566;9.910;2023-04-16T05:25:17;8.50;99.90
38902;DHT22;24661;53.566;9.910;2023-04-16T05:27:43;8.60;99.90
38902;DHT22;24661;53.566;9.910;2023-04-16T05:30:09;8.50;99.90
38902;DHT22;24661;53.566;9.910;2023-04-16T05:32:35;8.50;99.90
38902;DHT22;24661;53.566;9.910;2023-04-16T05:35:00;7.40;99.90
38902;DHT22;24661;53.566;9.910;2023-04-16T05:37:26;8.60;99.90
38902;DHT22;24661;53.566;9.910;2023-04-16T05:39:52;8.60;99.90
38902;DHT22;24661;53.566;9.910;2023-04-16T05:42:18;8.70;99.90
38902;DHT22;24661;53.566;9.910;2023-04-16T05:44:43;8.70;99.90
38902;DHT22;24661;53.566;9.910;2023-04-16T05:47:09;8.70;99.90
38902;DHT22;24661;53.566;9.910;2023-04-16T05:49:35;8.70;99.90
38902;DHT22;24661;53.566;9.910;2023-04-16T05:52:04;8.70;99.90
38902;DHT22;24661;53.566;9.910;2023-04-16T05:54:30;8.70;99.90
38902;DHT22;24661;53.566;9.910;2023-04-16T05:56:55;8.70;99.90
38902;DHT22;24661;53.566;9.910;2023-04-16T05:59:21;8.70;99.90
38902;DHT22;24661;53.566;9.910;2023-04-16T06:01:47;8.80;99.90
38902;DHT22;24661;53.566;9.910;2023-04-16T06:04:12;8.80;99.90
38902;DHT22;24661;53.566;9.910;2023-04-16T06:06:38;8.80;99.90
38902;DHT22;24661;53.566;9.910;2023-04-16T06:09:04;8.90;99.90
38902;DHT22;24661;53.566;9.910;2023-04-16T06:11:30;9.00;99.90
38902;DHT22;24661;53.566;9.910;2023-04-16T06:13:55;9.00;99.90
38902;DHT22;24661;53.566;9.910;2023-04-16T06:16:21;8.90;99.90
38902;DHT22;24661;53.566;9.910;2023-04-16T06:18:47;9.00;99.90
38902;DHT22;24661;53.566;9.910;2023-04-16T06:21:12;9.00;99.90
38902;DHT22;24661;53.566;9.910;2023-04-16T06:23:38;9.00;99.90
38902;DHT22;24661;53.566;9.910;2023-04-16T06:26:04;9.00;99.90
38902;DHT22;24661;53.566;9.910;2023-04-16T06:28:30;9.00;99.90
38902;DHT22;24661;53.566;9.910;2023-04-16T06:30:55;9.10;99.90
38902;DHT22;24661;53.566;9.910;2023-04-16T06:33:21;9.10;99.90
38902;DHT22;24661;53.566;9.910;2023-04-16T06:35:47;9.10;99.90
38902;DHT22;24661;53.566;9.910;2023-04-16T06:38:12;9.10;99.90
38902;DHT22;24661;53.566;9.910;2023-04-16T06:40:38;9.20;99.90
38902;DHT22;24661;53.566;9.910;2023-04-16T06:43:04;9.20;99.90
38902;DHT22;24661;53.566;9.910;2023-04-16T06:45:30;9.20;99.90
38902;DHT22;24661;53.566;9.910;2023-04-16T06:47:55;9.30;99.90
38902;DHT22;24661;53.566;9.910;2023-04-16T06:50:26;9.30;99.90
38902;DHT22;24661;53.566;9.910;2023-04-16T06:52:53;9.30;99.90
38902;DHT22;24661;53.566;9.910;2023-04-16T06:55:18;9.30;99.90
38902;DHT22;24661;53.566;9.910;2023-04-16T06:57:44;9.30;99.90
38902;DHT22;24661;53.566;9.910;2023-04-16T07:00:10;9.40;99.90
38902;DHT22;24661;53.566;9.910;2023-04-16T07:02:36;9.40;99.90
38902;DHT22;24661;53.566;9.910;2023-04-16T07:05:01;9.40;99.90
38902;DHT22;24661;53.566;9.910;2023-04-16T07:07:27;9.40;99.90
38902;DHT22;24661;53.566;9.910;2023-04-16T07:09:53;9.50;99.90
38902;DHT22;24661;53.566;9.910;2023-04-16T07:12:19;9.50;99.90
38902;DHT22;24661;53.566;9.910;2023-04-16T07:14:45;9.50;99.90
38902;DHT22;24661;53.566;9.910;2023-04-16T07:17:11;9.60;99.90
38902;DHT22;24661;53.566;9.910;2023-04-16T07:19:37;9.60;99.90
38902;DHT22;24661;53.566;9.910;2023-04-16T07:22:02;9.60;99.90
38902;DHT22;24661;53.566;9.910;2023-04-16T07:24:28;9.60;99.90
38902;DHT22;24661;53.566;9.910;2023-04-16T07:26:54;9.70;99.90
38902;DHT22;24661;53.566;9.910;2023-04-16T07:29:20;9.80;99.90
38902;DHT22;24661;53.566;9.910;2023-04-16T07:31:46;9.80;99.90
38902;DHT22;24661;53.566;9.910;2023-04-16T07:34:11;9.80;99.90
38902;DHT22;24661;53.566;9.910;2023-04-16T07:36:37;9.90;99.90
38902;DHT22;24661;53.566;9.910;2023-04-16T07:39:03;10.00;99.90
38902;DHT22;24661;53.566;9.910;2023-04-16T07:41:30;10.00;99.90
38902;DHT22;24661;53.566;9.910;2023-04-16T07:43:55;10.00;99.90
38902;DHT22;24661;53.566;9.910;2023-04-16T07:46:22;10.10;99.90
38902;DHT22;24661;53.566;9.910;2023-04-16T07:48:47;10.20;99.90
38902;DHT22;24661;53.566;9.910;2023-04-16T07:51:13;10.20;99.90
38902;DHT22;24661;53.566;9.910;2023-04-16T07:53:39;10.10;99.90
38902;DHT22;24661;53.566;9.910;2023-04-16T07:56:05;10.20;99.90
38902;DHT22;24661;53.566;9.910;2023-04-16T07:58:30;10.20;99.90
38902;DHT22;24661;53.566;9.910;2023-04-16T08:00:57;10.20;99.90
38902;DHT22;24661;53.566;9.910;2023-04-16T08:03:23;10.20;99.90
38902;DHT22;24661;53.566;9.910;2023-04-16T08:05:48;10.30;99.90
38902;DHT22;24661;53.566;9.910;2023-04-16T08:08:14;10.30;99.90
38902;DHT22;24661;53.566;9.910;2023-04-16T08:10:40;10.40;99.90
38902;DHT22;24661;53.566;9.910;2023-04-16T08:13:05;10.40;99.90
38902;DHT22;24661;53.566;9.910;2023-04-16T08:15:31;10.40;99.90
38902;DHT22;24661;53.566;9.910;2023-04-16T08:17:56;10.60;99.90
38902;DHT22;24661;53.566;9.910;2023-04-16T08:20:22;10.70;99.90
38902;DHT22;24661;53.566;9.910;2023-04-16T08:22:48;10.70;99.90
38902;DHT22;24661;53.566;9.910;2023-04-16T08:25:14;10.70;99.90
38902;DHT22;24661;53.566;9.910;2023-04-16T08:27:39;10.70;99.90
38902;DHT22;24661;53.566;9.910;2023-04-16T08:30:06;10.70;99.90
38902;DHT22;24661;53.566;9.910;2023-04-16T08:32:32;10.60;99.90
38902;DHT22;24661;53.566;9.910;2023-04-16T08:34:58;10.70;99.90
38902;DHT22;24661;53.566;9.910;2023-04-16T08:37:24;10.80;99.90
38902;DHT22;24661;53.566;9.910;2023-04-16T08:39:50;10.90;99.90
38902;DHT22;24661;53.566;9.910;2023-04-16T08:42:31;11.00;99.90
38902;DHT22;24661;53.566;9.910;2023-04-16T08:45:07;11.20;99.90
38902;DHT22;24661;53.566;9.910;2023-04-16T08:47:34;11.20;99.90
38902;DHT22;24661;53.566;9.910;2023-04-16T08:50:02;11.20;99.90
38902;DHT22;24661;53.566;9.910;2023-04-16T08:52:29;11.20;99.90
38902;DHT22;24661;53.566;9.910;2023-04-16T08:55:11;11.30;99.90
38902;DHT22;24661;53.566;9.910;2023-04-16T08:57:47;11.40;99.90
38902;DHT22;24661;53.566;9.910;2023-04-16T09:00:15;11.50;99.90
38902;DHT22;24661;53.566;9.910;2023-04-16T09:02:41;11.60;99.90
38902;DHT22;24661;53.566;9.910;2023-04-16T09:05:07;11.60;99.90
38902;DHT22;24661;53.566;9.910;2023-04-16T09:07:33;11.80;99.90
38902;DHT22;24661;53.566;9.910;2023-04-16T09:10:00;11.90;99.90
38902;DHT22;24661;53.566;9.910;2023-04-16T09:12:26;12.00;99.90
38902;DHT22;24661;53.566;9.910;2023-04-16T09:14:52;11.90;99.90
38902;DHT22;24661;53.566;9.910;2023-04-16T09:17:18;11.90;99.90
38902;DHT22;24661;53.566;9.910;2023-04-16T09:19:46;11.90;99.90
38902;DHT22;24661;53.566;9.910;2023-04-16T09:22:12;11.80;99.90
38902;DHT22;24661;53.566;9.910;2023-04-16T09:24:38;11.80;99.90
38902;DHT22;24661;53.566;9.910;2023-04-16T09:27:04;11.80;99.90
38902;DHT22;24661;53.566;9.910;2023-04-16T09:29:35;11.80;99.90
38902;DHT22;24661;53.566;9.910;2023-04-16T09:32:10;11.80;99.90
38902;DHT22;24661;53.566;9.910;2023-04-16T09:34:59;11.80;99.90
38902;DHT22;24661;53.566;9.910;2023-04-16T09:37:26;11.70;99.90
38902;DHT22;24661;53.566;9.910;2023-04-16T09:39:59;11.80;99.90
38902;DHT22;24661;53.566;9.910;2023-04-16T09:42:29;11.70;99.90
38902;DHT22;24661;53.566;9.910;2023-04-16T09:44:56;11.70;99.90
38902;DHT22;24661;53.566;9.910;2023-04-16T09:47:24;11.80;99.90
38902;DHT22;24661;53.566;9.910;2023-04-16T09:49:50;11.80;99.90
38902;DHT22;24661;53.566;9.910;2023-04-16T09:52:17;11.70;99.90
38902;DHT22;24661;53.566;9.910;2023-04-16T09:54:50;11.70;99.90
38902;DHT22;24661;53.566;9.910;2023-04-16T09:57:20;11.70;99.90
38902;DHT22;24661;53.566;9.910;2023-04-16T09:59:53;11.80;99.90
38902;DHT22;24661;53.566;9.910;2023-04-16T10:02:19;11.90;99.90
38902;DHT22;24661;53.566;9.910;2023-04-16T10:04:49;11.90;99.90
38902;DHT22;24661;53.566;9.910;2023-04-16T10:07:16;11.90;99.90
38902;DHT22;24661;53.566;9.910;2023-04-16T10:09:41;11.90;99.90
38902;DHT22;24661;53.566;9.910;2023-04-16T10:12:07;11.80;99.90
38902;DHT22;24661;53.566;9.910;2023-04-16T10:14:33;11.70;99.90
38902;DHT22;24661;53.566;9.910;2023-04-16T10:16:59;11.70;99.90
38902;DHT22;24661;53.566;9.910;2023-04-16T10:19:26;11.80;99.90
38902;DHT22;24661;53.566;9.910;2023-04-16T10:21:53;11.70;99.90
38902;DHT22;24661;53.566;9.910;2023-04-16T10:24:19;11.70;99.90
38902;DHT22;24661;53.566;9.910;2023-04-16T10:26:46;11.80;99.90
38902;DHT22;24661;53.566;9.910;2023-04-16T10:29:14;11.80;99.90
38902;DHT22;24661;53.566;9.910;2023-04-16T10:31:40;11.80;99.90
38902;DHT22;24661;53.566;9.910;2023-04-16T10:34:08;11.70;99.90
38902;DHT22;24661;53.566;9.910;2023-04-16T10:36:37;11.80;99.90
38902;DHT22;24661;53.566;9.910;2023-04-16T10:39:03;11.70;99.90
38902;DHT22;24661;53.566;9.910;2023-04-16T10:41:31;11.70;99.90
38902;DHT22;24661;53.566;9.910;2023-04-16T10:44:08;11.70;99.90
38902;DHT22;24661;53.566;9.910;2023-04-16T10:46:37;11.70;99.90
38902;DHT22;24661;53.566;9.910;2023-04-16T10:49:22;11.60;99.90
38902;DHT22;24661;53.566;9.910;2023-04-16T10:51:56;11.60;99.90
38902;DHT22;24661;53.566;9.910;2023-04-16T10:54:27;11.70;99.90
38902;DHT22;24661;53.566;9.910;2023-04-16T10:56:56;11.80;99.90
38902;DHT22;24661;53.566;9.910;2023-04-16T10:59:23;12.10;99.90
38902;DHT22;24661;53.566;9.910;2023-04-16T11:01:54;12.20;99.90
38902;DHT22;24661;53.566;9.910;2023-04-16T11:09:56;12.20;99.90
38902;DHT22;24661;53.566;9.910;2023-04-16T11:12:34;12.30;99.90
38902;DHT22;24661;53.566;9.910;2023-04-16T11:15:14;12.20;99.90
38902;DHT22;24661;53.566;9.910;2023-04-16T11:20:21;12.10;99.90
38902;DHT22;24661;53.566;9.910;2023-04-16T11:22:48;12.20;99.90
38902;DHT22;24661;53.566;9.910;2023-04-16T11:25:23;12.20;99.90
38902;DHT22;24661;53.566;9.910;2023-04-16T11:27:50;12.00;99.90
38902;DHT22;24661;53.566;9.910;2023-04-16T11:30:16;11.90;99.90
38902;DHT22;24661;53.566;9.910;2023-04-16T11:32:43;11.90;99.90
38902;DHT22;24661;53.566;9.910;2023-04-16T11:35:16;11.80;99.90
38902;DHT22;24661;53.566;9.910;2023-04-16T11:37:43;11.90;99.90
38902;DHT22;24661;53.566;9.910;2023-04-16T11:40:09;11.90;99.90
38902;DHT22;24661;53.566;9.910;2023-04-16T11:42:36;11.80;99.90
38902;DHT22;24661;53.566;9.910;2023-04-16T11:45:05;11.80;99.90
38902;DHT22;24661;53.566;9.910;2023-04-16T11:47:31;11.90;99.90
38902;DHT22;24661;53.566;9.910;2023-04-16T11:49:57;11.90;99.90
38902;DHT22;24661;53.566;9.910;2023-04-16T11:52:30;11.80;99.90
38902;DHT22;24661;53.566;9.910;2023-04-16T11:54:57;11.80;99.90
38902;DHT22;24661;53.566;9.910;2023-04-16T11:57:28;11.80;99.90
38902;DHT22;24661;53.566;9.910;2023-04-16T11:59:54;11.90;99.90
38902;DHT22;24661;53.566;9.910;2023-04-16T12:02:42;12.10;99.90
38902;DHT22;24661;53.566;9.910;2023-04-16T12:07:58;12.30;99.90
38902;DHT22;24661;53.566;9.910;2023-04-16T12:10:24;12.30;99.90
38902;DHT22;24661;53.566;9.910;2023-04-16T12:12:51;12.30;99.90
38902;DHT22;24661;53.566;9.910;2023-04-16T12:15:17;12.30;99.90
38902;DHT22;24661;53.566;9.910;2023-04-16T12:17:42;12.20;99.90
38902;DHT22;24661;53.566;9.910;2023-04-16T12:20:12;12.30;99.90
38902;DHT22;24661;53.566;9.910;2023-04-16T12:22:44;12.30;99.90
38902;DHT22;24661;53.566;9.910;2023-04-16T12:25:11;12.20;99.90
38902;DHT22;24661;53.566;9.910;2023-04-16T12:30:08;12.00;99.90
38902;DHT22;24661;53.566;9.910;2023-04-16T12:32:34;12.00;99.90
38902;DHT22;24661;53.566;9.910;2023-04-16T12:34:59;12.00;99.90
38902;DHT22;24661;53.566;9.910;2023-04-16T12:37:25;12.00;99.90
38902;DHT22;24661;53.566;9.910;2023-04-16T12:39:51;12.00;99.90
38902;DHT22;24661;53.566;9.910;2023-04-16T12:42:17;12.10;99.90
38902;DHT22;24661;53.566;9.910;2023-04-16T12:44:42;12.20;99.90
38902;DHT22;24661;53.566;9.910;2023-04-16T12:47:08;12.10;99.90
38902;DHT22;24661;53.566;9.910;2023-04-16T12:49:35;12.20;99.90
38902;DHT22;24661;53.566;9.910;2023-04-16T12:52:01;12.10;99.90
38902;DHT22;24661;53.566;9.910;2023-04-16T12:54:27;12.00;99.90
38902;DHT22;24661;53.566;9.910;2023-04-16T12:56:55;12.00;99.90
38902;DHT22;24661;53.566;9.910;2023-04-16T12:59:21;12.20;99.90
38902;DHT22;24661;53.566;9.910;2023-04-16T13:01:46;12.20;99.90
38902;DHT22;24661;53.566;9.910;2023-04-16T13:04:12;12.20;99.90
38902;DHT22;24661;53.566;9.910;2023-04-16T13:06:41;12.30;99.90
38902;DHT22;24661;53.566;9.910;2023-04-16T13:09:06;12.30;99.90
38902;DHT22;24661;53.566;9.910;2023-04-16T13:11:32;12.20;99.90
38902;DHT22;24661;53.566;9.910;2023-04-16T13:13:58;12.20;99.90
38902;DHT22;24661;53.566;9.910;2023-04-16T13:16:23;12.20;99.90
38902;DHT22;24661;53.566;9.910;2023-04-16T13:18:49;12.20;99.90
38902;DHT22;24661;53.566;9.910;2023-04-16T13:21:15;12.20;99.90
38902;DHT22;24661;53.566;9.910;2023-04-16T13:23:40;12.20;99.90
38902;DHT22;24661;53.566;9.910;2023-04-16T13:26:07;12.20;99.90
38902;DHT22;24661;53.566;9.910;2023-04-16T13:28:33;12.30;99.90
38902;DHT22;24661;53.566;9.910;2023-04-16T13:31:01;12.20;99.90
38902;DHT22;24661;53.566;9.910;2023-04-16T13:33:27;12.20;99.90
38902;DHT22;24661;53.566;9.910;2023-04-16T13:35:53;12.20;99.90
38902;DHT22;24661;53.566;9.910;2023-04-16T13:38:19;12.30;99.90
38902;DHT22;24661;53.566;9.910;2023-04-16T13:40:44;12.20;99.90
38902;DHT22;24661;53.566;9.910;2023-04-16T13:43:10;12.20;99.90
38902;DHT22;24661;53.566;9.910;2023-04-16T13:45:36;12.20;99.90
38902;DHT22;24661;53.566;9.910;2023-04-16T13:48:02;12.20;99.90
38902;DHT22;24661;53.566;9.910;2023-04-16T13:50:28;12.20;99.90
38902;DHT22;24661;53.566;9.910;2023-04-16T13:52:54;12.10;99.90
38902;DHT22;24661;53.566;9.910;2023-04-16T13:55:20;12.20;99.90
38902;DHT22;24661;53.566;9.910;2023-04-16T13:57:46;12.20;99.90
38902;DHT22;24661;53.566;9.910;2023-04-16T14:00:13;12.10;99.90
38902;DHT22;24661;53.566;9.910;2023-04-16T14:02:41;12.00;99.90
38902;DHT22;24661;53.566;9.910;2023-04-16T14:05:07;12.00;99.90
38902;DHT22;24661;53.566;9.910;2023-04-16T14:07:33;11.90;99.90
38902;DHT22;24661;53.566;9.910;2023-04-16T14:09:59;12.00;99.90
38902;DHT22;24661;53.566;9.910;2023-04-16T14:12:26;12.10;99.90
38902;DHT22;24661;53.566;9.910;2023-04-16T14:14:52;12.10;99.90
38902;DHT22;24661;53.566;9.910;2023-04-16T14:17:17;12.10;99.90
38902;DHT22;24661;53.566;9.910;2023-04-16T14:19:43;12.10;99.90
38902;DHT22;24661;53.566;9.910;2023-04-16T14:22:09;12.20;99.90
38902;DHT22;24661;53.566;9.910;2023-04-16T14:24:35;12.10;99.90
38902;DHT22;24661;53.566;9.910;2023-04-16T14:27:01;12.20;99.90
38902;DHT22;24661;53.566;9.910;2023-04-16T14:29:27;12.20;99.90
38902;DHT22;24661;53.566;9.910;2023-04-16T14:31:52;12.20;99.90
38902;DHT22;24661;53.566;9.910;2023-04-16T14:34:18;12.20;99.90
38902;DHT22;24661;53.566;9.910;2023-04-16T14:36:45;12.20;99.90
38902;DHT22;24661;53.566;9.910;2023-04-16T14:39:11;12.10;99.90
38902;DHT22;24661;53.566;9.910;2023-04-16T14:41:38;12.10;99.90
38902;DHT22;24661;53.566;9.910;2023-04-16T14:44:06;12.20;99.90
38902;DHT22;24661;53.566;9.910;2023-04-16T14:46:32;12.30;99.90
38902;DHT22;24661;53.566;9.910;2023-04-16T14:49:01;12.30;99.90
38902;DHT22;24661;53.566;9.910;2023-04-16T14:51:28;12.20;99.90
38902;DHT22;24661;53.566;9.910;2023-04-16T14:53:55;12.20;99.90
38902;DHT22;24661;53.566;9.910;2023-04-16T14:56:22;12.20;99.90
38902;DHT22;24661;53.566;9.910;2023-04-16T14:58:48;12.10;99.90
38902;DHT22;24661;53.566;9.910;2023-04-16T15:01:16;12.00;99.90
38902;DHT22;24661;53.566;9.910;2023-04-16T15:03:41;12.10;99.90
38902;DHT22;24661;53.566;9.910;2023-04-16T15:06:08;12.00;99.90
38902;DHT22;24661;53.566;9.910;2023-04-16T15:08:35;12.10;99.90
38902;DHT22;24661;53.566;9.910;2023-04-16T15:11:02;12.10;99.90
38902;DHT22;24661;53.566;9.910;2023-04-16T15:13:28;12.00;99.90
38902;DHT22;24661;53.566;9.910;2023-04-16T15:15:59;11.90;99.90
38902;DHT22;24661;53.566;9.910;2023-04-16T15:18:26;12.00;99.90
38902;DHT22;24661;53.566;9.910;2023-04-16T15:20:52;12.00;99.90
38902;DHT22;24661;53.566;9.910;2023-04-16T15:23:19;12.10;99.90
38902;DHT22;24661;53.566;9.910;2023-04-16T15:25:45;12.10;99.90
38902;DHT22;24661;53.566;9.910;2023-04-16T15:28:10;12.10;99.90
38902;DHT22;24661;53.566;9.910;2023-04-16T15:30:38;12.00;99.90
38902;DHT22;24661;53.566;9.910;2023-04-16T15:33:05;12.00;99.90
38902;DHT22;24661;53.566;9.910;2023-04-16T15:35:31;11.90;99.90
38902;DHT22;24661;53.566;9.910;2023-04-16T15:37:57;11.90;99.90
38902;DHT22;24661;53.566;9.910;2023-04-16T15:40:23;11.80;99.90
38902;DHT22;24661;53.566;9.910;2023-04-16T15:42:49;11.70;99.90
38902;DHT22;24661;53.566;9.910;2023-04-16T15:45:15;11.80;99.90
38902;DHT22;24661;53.566;9.910;2023-04-16T15:47:41;11.70;99.90